createdAt,value
2022-10-11T00:01:05.982Z,25.47
2022-10-11T00:04:09.102Z,25.35
2022-10-11T00:07:12.366Z,24.94
2022-10-11T00:10:15.471Z,24.97
2022-10-11T00:13:18.519Z,25.01
2022-10-11T00:16:21.604Z,25.22
2022-10-11T00:19:24.708Z,25.07
2022-10-11T00:22:27.739Z,24.56
2022-10-11T00:25:30.787Z,24.58
2022-10-11T00:28:34.516Z,24.53
2022-10-11T00:31:37.629Z,24.42
2022-10-11T00:34:40.848Z,24.51
2022-10-11T00:37:44.021Z,24.48
2022-10-11T00:40:47.182Z,24.42
2022-10-11T00:44:13.051Z,23.87
2022-10-11T00:47:22.454Z,23.99
2022-10-11T00:50:25.879Z,24.10
2022-10-11T00:53:32.908Z,24.10
2022-10-11T00:56:39.141Z,23.59
2022-10-11T00:59:45.497Z,23.23
2022-10-11T01:02:48.880Z,23.37
2022-10-11T01:05:52.160Z,23.77
2022-10-11T01:08:55.326Z,23.68
2022-10-11T01:12:00.309Z,23.31
2022-10-11T01:15:12.654Z,23.22
2022-10-11T01:18:47.174Z,23.13
2022-10-11T01:22:03.166Z,23.02
2022-10-11T01:25:31.972Z,22.89
2022-10-11T01:28:44.108Z,22.75
2022-10-11T01:32:20.076Z,22.65
2022-10-11T01:35:53.625Z,22.83
2022-10-11T01:39:01.803Z,22.65
2022-10-11T01:42:06.722Z,22.40
2022-10-11T01:45:14.734Z,22.50
2022-10-11T01:48:17.929Z,22.66
2022-10-11T01:51:23.184Z,22.52
2022-10-11T01:55:07.620Z,22.63
2022-10-11T01:58:03.359Z,22.67
2022-10-11T02:01:31.357Z,22.63
2022-10-11T02:05:13.150Z,22.47
2022-10-11T02:08:32.032Z,22.37
2022-10-11T02:11:37.548Z,22.10
2022-10-11T02:14:43.789Z,21.96
2022-10-11T02:17:51.379Z,22.33
2022-10-11T02:20:55.164Z,22.47
2022-10-11T02:24:05.682Z,22.36
2022-10-11T02:27:10.090Z,22.26
2022-10-11T02:30:13.544Z,22.29
2022-10-11T02:33:19.791Z,22.19
2022-10-11T02:36:33.506Z,22.18
2022-10-11T02:39:42.390Z,22.02
2022-10-11T02:43:02.216Z,22.17
2022-10-11T02:46:06.779Z,22.12
2022-10-11T02:49:11.019Z,21.83
2022-10-11T02:52:17.543Z,21.85
2022-10-11T02:55:20.705Z,21.50
2022-10-11T02:58:27.217Z,21.37
2022-10-11T03:01:30.283Z,21.45
2022-10-11T03:04:33.438Z,21.59
2022-10-11T03:07:36.472Z,21.25
2022-10-11T03:10:41.312Z,21.23
2022-10-11T03:13:44.351Z,20.94
2022-10-11T03:16:47.667Z,20.98
2022-10-11T03:19:50.790Z,21.24
2022-10-11T03:22:54.550Z,21.44
2022-10-11T03:25:57.588Z,21.29
2022-10-11T03:29:00.632Z,21.46
2022-10-11T03:32:03.905Z,20.86
2022-10-11T03:35:07.819Z,20.88
2022-10-11T03:38:15.021Z,20.90
2022-10-11T03:41:18.073Z,20.84
2022-10-11T03:44:21.068Z,20.90
2022-10-11T03:47:24.113Z,20.94
2022-10-11T03:50:27.305Z,20.83
2022-10-11T03:53:30.369Z,20.94
2022-10-11T03:56:34.404Z,20.95
2022-10-11T03:59:41.184Z,20.71
2022-10-11T04:02:44.231Z,20.78
2022-10-11T04:05:47.251Z,20.67
2022-10-11T04:08:50.297Z,20.60
2022-10-11T04:11:53.299Z,20.06
2022-10-11T04:14:56.367Z,20.15
2022-10-11T04:17:59.439Z,20.08
2022-10-11T04:21:02.431Z,20.11
2022-10-11T04:24:07.332Z,19.75
2022-10-11T04:27:11.154Z,20.15
2022-10-11T04:30:14.533Z,20.28
2022-10-11T04:33:17.521Z,20.52
2022-10-11T04:36:20.561Z,20.38
2022-10-11T04:39:23.578Z,20.37
2022-10-11T04:42:26.637Z,20.25
2022-10-11T04:45:29.669Z,20.30
2022-10-11T04:48:32.846Z,20.19
2022-10-11T04:51:35.820Z,19.86
2022-10-11T04:54:39.009Z,19.79
2022-10-11T04:57:42.042Z,19.92
2022-10-11T05:00:45.122Z,19.91
2022-10-11T05:03:50.019Z,19.94
2022-10-11T05:06:53.291Z,19.76
2022-10-11T05:09:59.509Z,19.72
2022-10-11T05:13:02.774Z,19.61
2022-10-11T05:16:11.206Z,19.36
2022-10-11T05:19:14.702Z,19.38
2022-10-11T05:22:17.709Z,19.64
2022-10-11T05:25:20.791Z,19.76
2022-10-11T05:28:23.947Z,19.32
2022-10-11T05:31:27.287Z,19.11
2022-10-11T05:34:30.457Z,19.49
2022-10-11T05:37:33.603Z,19.64
2022-10-11T05:40:38.097Z,19.67
2022-10-11T05:43:41.318Z,19.66
2022-10-11T05:46:44.455Z,19.33
2022-10-11T05:49:49.633Z,18.95
2022-10-11T05:52:52.685Z,18.78
2022-10-11T05:55:55.784Z,19.08
2022-10-11T05:59:02.367Z,18.99
2022-10-11T06:02:07.021Z,19.20
2022-10-11T06:05:13.259Z,19.51
2022-10-11T06:08:17.958Z,19.28
2022-10-11T06:11:23.486Z,18.87
2022-10-11T06:14:26.634Z,18.74
2022-10-11T06:17:29.640Z,18.92
2022-10-11T06:20:33.482Z,19.06
2022-10-11T06:23:36.518Z,19.15
2022-10-11T06:26:39.823Z,19.26
2022-10-11T06:29:43.040Z,19.19
2022-10-11T06:32:46.108Z,18.87
2022-10-11T06:35:49.223Z,18.98
2022-10-11T06:38:55.898Z,18.99
2022-10-11T06:41:59.010Z,18.88
2022-10-11T06:45:02.069Z,18.79
2022-10-11T06:48:08.202Z,18.77
2022-10-11T06:51:14.498Z,18.81
2022-10-11T06:54:18.617Z,18.75
2022-10-11T06:57:21.624Z,19.12
2022-10-11T07:00:27.225Z,18.95
2022-10-11T07:03:30.534Z,19.17
2022-10-11T07:06:41.846Z,18.80
2022-10-11T07:09:45.036Z,18.88
2022-10-11T07:12:48.025Z,19.03
2022-10-11T07:15:51.093Z,18.83
2022-10-11T07:19:00.216Z,19.11
2022-10-11T07:22:03.760Z,18.75
2022-10-11T07:25:09.374Z,18.82
2022-10-11T07:28:13.234Z,19.24
2022-10-11T07:31:20.358Z,19.15
2022-10-11T07:34:23.574Z,18.92
2022-10-11T07:37:26.612Z,18.06
2022-10-11T07:40:30.645Z,18.13
2022-10-11T07:43:33.812Z,18.25
2022-10-11T07:46:36.863Z,18.63
2022-10-11T07:49:39.901Z,18.53
2022-10-11T07:52:43.046Z,18.48
2022-10-11T07:55:49.102Z,18.57
2022-10-11T07:58:54.038Z,18.80
2022-10-11T08:01:57.127Z,18.36
2022-10-11T08:05:02.265Z,18.22
2022-10-11T08:08:05.669Z,18.39
2022-10-11T08:11:08.714Z,18.44
2022-10-11T08:14:11.710Z,18.45
2022-10-11T08:17:15.002Z,18.73
2022-10-11T08:20:18.270Z,18.57
2022-10-11T08:23:21.366Z,18.15
2022-10-11T08:26:24.694Z,18.61
2022-10-11T08:29:27.785Z,18.87
2022-10-11T08:32:33.552Z,18.86
2022-10-11T08:35:37.091Z,18.44
2022-10-11T08:38:40.570Z,18.14
2022-10-11T08:41:58.229Z,18.19
2022-10-11T08:45:11.057Z,18.32
2022-10-11T08:48:18.905Z,18.45
2022-10-11T08:51:27.648Z,18.57
2022-10-11T08:54:39.180Z,18.30
2022-10-11T08:57:43.725Z,18.57
2022-10-11T09:00:49.057Z,18.36
2022-10-11T09:03:55.102Z,18.43
2022-10-11T09:07:33.681Z,18.16
2022-10-11T09:10:48.763Z,17.77
2022-10-11T09:14:15.264Z,17.74
2022-10-11T09:17:43.669Z,18.38
2022-10-11T09:21:17.613Z,18.45
2022-10-11T09:24:29.850Z,18.42
2022-10-11T09:28:08.259Z,18.33
2022-10-11T09:31:12.250Z,17.94
2022-10-11T09:34:16.184Z,17.68
2022-10-11T09:37:25.516Z,17.94
2022-10-11T09:40:37.544Z,18.12
2022-10-11T09:43:40.918Z,18.00
2022-10-11T09:46:45.475Z,18.11
2022-10-11T09:49:52.377Z,17.81
2022-10-11T09:52:58.120Z,17.65
2022-10-11T09:56:05.387Z,17.54
2022-10-11T09:59:29.654Z,17.91
2022-10-11T10:02:47.922Z,18.33
2022-10-11T10:06:16.458Z,18.25
2022-10-11T10:09:31.066Z,18.27
2022-10-11T10:12:34.168Z,18.22
2022-10-11T10:15:38.285Z,17.93
2022-10-11T10:19:02.788Z,17.66
2022-10-11T10:22:05.921Z,17.65
2022-10-11T10:25:25.359Z,17.80
2022-10-11T10:28:28.723Z,17.91
2022-10-11T10:31:49.516Z,18.06
2022-10-11T10:35:09.900Z,17.94
2022-10-11T10:38:19.874Z,17.55
2022-10-11T10:41:26.802Z,17.77
2022-10-11T10:44:32.392Z,18.05
2022-10-11T10:48:10.535Z,17.98
2022-10-11T10:51:24.020Z,17.88
2022-10-11T10:54:50.607Z,18.02
2022-10-11T10:58:19.795Z,17.90
2022-10-11T11:01:32.534Z,17.73
2022-10-11T11:04:35.864Z,17.79
2022-10-11T11:08:12.863Z,17.69
2022-10-11T11:11:30.217Z,17.70
2022-10-11T11:14:51.471Z,17.88
2022-10-11T11:18:19.602Z,17.02
2022-10-11T11:21:31.365Z,16.87
2022-10-11T11:24:52.355Z,17.25
2022-10-11T11:28:27.384Z,17.24
2022-10-11T11:31:45.706Z,17.43
2022-10-11T11:34:52.784Z,17.22
2022-10-11T11:38:06.067Z,17.32
2022-10-11T11:41:22.490Z,17.05
2022-10-11T11:44:48.248Z,17.19
2022-10-11T11:48:05.296Z,16.97
2022-10-11T11:51:18.472Z,17.35
2022-10-11T11:54:37.311Z,17.18
2022-10-11T11:57:52.311Z,17.04
2022-10-11T12:01:04.441Z,17.19
2022-10-11T12:04:23.310Z,17.22
2022-10-11T12:07:27.843Z,16.73
2022-10-11T12:10:40.755Z,16.86
2022-10-11T12:13:43.838Z,17.18
2022-10-11T12:17:05.481Z,17.37
2022-10-11T12:20:14.324Z,17.06
2022-10-11T12:23:29.585Z,16.92
2022-10-11T12:26:39.158Z,16.90
2022-10-11T12:29:50.877Z,17.07
2022-10-11T12:33:06.450Z,17.15
2022-10-11T12:36:38.747Z,16.89
2022-10-11T12:39:55.817Z,17.30
2022-10-11T12:43:17.099Z,17.75
2022-10-11T12:46:29.269Z,17.94
2022-10-11T12:49:50.308Z,17.88
2022-10-11T12:52:59.644Z,17.57
2022-10-11T12:56:05.778Z,17.44
2022-10-11T12:59:22.465Z,17.14
2022-10-11T13:02:43.770Z,17.38
2022-10-11T13:05:50.967Z,17.79
2022-10-11T13:09:01.072Z,18.06
2022-10-11T13:12:09.781Z,18.15
2022-10-11T13:15:16.510Z,18.15
2022-10-11T13:18:27.366Z,18.43
2022-10-11T13:21:36.481Z,18.37
2022-10-11T13:24:44.061Z,18.17
2022-10-11T13:27:47.450Z,17.78
2022-10-11T13:30:54.119Z,18.09
2022-10-11T13:33:58.673Z,18.74
2022-10-11T13:37:01.788Z,19.16
2022-10-11T13:40:05.450Z,19.32
2022-10-11T13:43:08.943Z,19.70
2022-10-11T13:46:20.263Z,19.77
2022-10-11T13:49:29.622Z,20.19
2022-10-11T13:52:34.781Z,20.03
2022-10-11T13:56:03.859Z,20.33
2022-10-11T13:59:07.169Z,20.22
2022-10-11T14:02:19.065Z,20.69
2022-10-11T14:05:26.469Z,20.49
2022-10-11T14:08:37.766Z,20.74
2022-10-11T14:11:43.917Z,20.88
2022-10-11T14:14:48.672Z,20.15
2022-10-11T14:17:52.420Z,20.70
2022-10-11T14:20:55.426Z,21.05
2022-10-11T14:24:01.402Z,20.91
2022-10-11T14:27:05.325Z,21.63
2022-10-11T14:30:31.208Z,21.84
2022-10-11T14:33:34.728Z,21.47
2022-10-11T14:36:37.790Z,22.25
2022-10-11T14:39:40.871Z,22.44
2022-10-11T14:42:44.043Z,22.25
2022-10-11T14:45:47.269Z,22.51
2022-10-11T14:48:55.374Z,22.74
2022-10-11T14:51:59.783Z,22.51
2022-10-11T14:55:04.431Z,22.72
2022-10-11T14:58:08.828Z,23.04
2022-10-11T15:01:15.474Z,23.22
2022-10-11T15:04:19.358Z,23.30
2022-10-11T15:07:22.578Z,22.85
2022-10-11T15:10:27.247Z,23.17
2022-10-11T15:13:30.418Z,23.45
2022-10-11T15:16:34.051Z,23.36
2022-10-11T15:19:37.529Z,23.50
2022-10-11T15:22:40.761Z,23.18
2022-10-11T15:25:43.814Z,24.18
2022-10-11T15:28:47.325Z,24.08
2022-10-11T15:31:52.417Z,24.19
2022-10-11T15:34:55.514Z,24.88
2022-10-11T15:38:00.104Z,25.16
2022-10-11T15:41:03.382Z,25.07
2022-10-11T15:44:06.439Z,24.77
2022-10-11T15:47:09.627Z,24.94
2022-10-11T15:50:19.919Z,25.69
2022-10-11T15:53:30.803Z,25.95
2022-10-11T15:56:34.021Z,25.99
2022-10-11T15:59:37.294Z,25.33
2022-10-11T16:02:40.550Z,25.98
2022-10-11T16:05:44.418Z,26.12
2022-10-11T16:08:47.924Z,25.91
2022-10-11T16:11:50.975Z,26.04
2022-10-11T16:14:54.007Z,26.44
2022-10-11T16:17:57.069Z,26.83
2022-10-11T16:21:00.423Z,26.57
2022-10-11T16:24:07.623Z,27.43
2022-10-11T16:27:11.817Z,27.38
2022-10-11T16:30:18.880Z,26.48
2022-10-11T16:33:23.019Z,27.39
2022-10-11T16:36:26.191Z,27.15
2022-10-11T16:39:29.515Z,27.89
2022-10-11T16:42:33.116Z,28.34
2022-10-11T16:45:36.505Z,27.86
2022-10-11T16:48:39.714Z,27.94
2022-10-11T16:51:42.876Z,27.35
2022-10-11T16:54:49.314Z,27.94
2022-10-11T16:57:52.477Z,28.38
2022-10-11T17:00:55.491Z,28.12
2022-10-11T17:03:58.566Z,28.16
2022-10-11T17:07:01.572Z,28.11
2022-10-11T17:10:05.652Z,29.04
2022-10-11T17:13:10.075Z,28.69
2022-10-11T17:16:13.374Z,28.03
2022-10-11T17:19:16.561Z,28.70
2022-10-11T17:22:20.798Z,29.12
2022-10-11T17:25:23.853Z,27.98
2022-10-11T17:28:26.959Z,28.29
2022-10-11T17:31:30.677Z,28.77
2022-10-11T17:34:34.310Z,28.51
2022-10-11T17:37:37.332Z,28.75
2022-10-11T17:40:40.469Z,28.54
2022-10-11T17:43:43.795Z,28.72
2022-10-11T17:46:47.734Z,29.38
2022-10-11T17:49:50.787Z,28.78
2022-10-11T17:52:54.020Z,28.47
2022-10-11T17:55:57.041Z,28.70
2022-10-11T17:58:54.838Z,28.05
2022-10-11T18:02:00.433Z,29.22
2022-10-11T18:05:03.578Z,28.12
2022-10-11T18:08:06.744Z,28.76
2022-10-11T18:11:18.399Z,29.43
2022-10-11T18:14:21.665Z,28.45
2022-10-11T18:17:24.752Z,27.60
2022-10-11T18:20:27.764Z,28.09
2022-10-11T18:23:30.833Z,28.13
2022-10-11T18:26:34.150Z,28.38
2022-10-11T18:29:37.304Z,28.58
2022-10-11T18:32:40.428Z,28.15
2022-10-11T18:35:43.490Z,28.05
2022-10-11T18:38:49.720Z,27.59
2022-10-11T18:41:52.769Z,28.52
2022-10-11T18:44:55.870Z,28.84
2022-10-11T18:47:59.802Z,28.78
2022-10-11T18:51:14.458Z,28.32
2022-10-11T18:54:20.281Z,28.13
2022-10-11T18:57:26.945Z,28.83
2022-10-11T19:00:40.549Z,28.85
2022-10-11T19:03:46.138Z,29.26
2022-10-11T19:06:49.946Z,28.86
2022-10-11T19:09:53.000Z,29.00
2022-10-11T19:12:56.011Z,29.13
2022-10-11T19:16:08.514Z,28.36
2022-10-11T19:19:13.068Z,28.36
2022-10-11T19:22:18.729Z,28.78
2022-10-11T19:25:21.805Z,28.95
2022-10-11T19:28:27.488Z,28.43
2022-10-11T19:31:31.493Z,28.46
2022-10-11T19:34:34.509Z,28.88
2022-10-11T19:37:39.614Z,29.41
2022-10-11T19:40:42.646Z,29.48
2022-10-11T19:43:46.355Z,28.75
2022-10-11T19:46:52.020Z,28.54
2022-10-11T19:49:55.915Z,28.73
2022-10-11T19:52:58.925Z,28.77
2022-10-11T19:56:03.333Z,29.24
2022-10-11T19:59:06.734Z,29.88
2022-10-11T20:02:11.850Z,29.68
2022-10-11T20:05:14.910Z,29.38
2022-10-11T20:08:18.929Z,29.69
2022-10-11T20:11:24.493Z,29.87
2022-10-11T20:14:29.648Z,30.72
2022-10-11T20:17:32.814Z,30.51
2022-10-11T20:20:35.987Z,30.24
2022-10-11T20:23:40.187Z,29.43
2022-10-11T20:26:43.257Z,28.76
2022-10-11T20:29:46.270Z,28.62
2022-10-11T20:32:49.326Z,28.47
2022-10-11T20:36:06.936Z,28.68
2022-10-11T20:39:10.699Z,28.87
2022-10-11T20:42:13.811Z,29.58
2022-10-11T20:45:16.898Z,29.41
2022-10-11T20:48:19.979Z,29.72
2022-10-11T20:51:23.347Z,28.80
2022-10-11T20:54:26.481Z,29.45
2022-10-11T20:57:31.487Z,29.63
2022-10-11T21:00:34.779Z,29.81
2022-10-11T21:03:37.931Z,28.94
2022-10-11T21:06:40.954Z,29.26
2022-10-11T21:09:46.219Z,29.00
2022-10-11T21:12:49.371Z,29.11
2022-10-11T21:15:52.448Z,29.57
2022-10-11T21:18:56.934Z,29.38
2022-10-11T21:21:59.990Z,29.77
2022-10-11T21:25:03.004Z,29.80
2022-10-11T21:28:06.524Z,30.12
2022-10-11T21:31:11.785Z,30.04
2022-10-11T21:34:15.131Z,30.21
2022-10-11T21:37:18.140Z,29.74
2022-10-11T21:40:23.768Z,29.84
2022-10-11T21:43:26.881Z,29.82
2022-10-11T21:47:01.350Z,30.18
2022-10-11T21:49:54.992Z,30.15
2022-10-11T21:52:58.054Z,29.75
2022-10-11T21:56:02.003Z,29.41
2022-10-11T21:59:07.960Z,30.59
2022-10-11T22:02:14.527Z,31.24
2022-10-11T22:05:17.664Z,32.28
2022-10-11T22:08:23.821Z,32.29
2022-10-11T22:11:27.588Z,30.63
2022-10-11T22:14:31.079Z,31.27
2022-10-11T22:17:34.161Z,32.94
2022-10-11T22:20:37.188Z,33.84
2022-10-11T22:23:41.497Z,33.80
2022-10-11T22:26:46.603Z,30.41
2022-10-11T22:29:49.887Z,29.74
2022-10-11T22:32:52.962Z,29.51
2022-10-11T22:35:57.303Z,29.54
2022-10-11T22:39:00.621Z,29.43
2022-10-11T22:42:03.691Z,29.02
2022-10-11T22:45:07.078Z,28.97
2022-10-11T22:48:10.444Z,28.69
2022-10-11T22:51:13.525Z,28.57
2022-10-11T22:54:18.051Z,28.29
2022-10-11T22:57:22.683Z,28.27
2022-10-11T23:00:26.868Z,28.06
2022-10-11T23:03:29.938Z,27.71
2022-10-11T23:06:32.990Z,27.63
2022-10-11T23:09:36.075Z,28.00
2022-10-11T23:12:39.142Z,27.84
2022-10-11T23:15:42.968Z,27.43
2022-10-11T23:18:46.313Z,27.62
2022-10-11T23:21:50.468Z,27.19
2022-10-11T23:24:53.653Z,27.30
2022-10-11T23:27:57.645Z,27.09
2022-10-11T23:31:01.753Z,26.72
2022-10-11T23:34:04.746Z,26.80
2022-10-11T23:37:07.807Z,26.72
2022-10-11T23:40:12.376Z,26.67
2022-10-11T23:43:15.616Z,26.36
2022-10-11T23:46:18.621Z,26.08
2022-10-11T23:49:21.784Z,25.76
2022-10-11T23:52:24.901Z,26.01
2022-10-11T23:55:28.049Z,25.89
2022-10-11T23:58:34.071Z,25.60
